createdAt,value
2019-04-25T00:01:31.248Z,13.32
2019-04-25T00:04:02.409Z,13.24
2019-04-25T00:06:34.383Z,12.74
2019-04-25T00:09:09.066Z,12.74
2019-04-25T00:11:39.952Z,12.60
2019-04-25T00:14:11.343Z,12.62
2019-04-25T00:16:45.196Z,12.64
2019-04-25T00:19:15.973Z,12.41
2019-04-25T00:22:02.014Z,12.48
2019-04-25T00:24:47.247Z,12.24
2019-04-25T00:27:18.055Z,12.12
2019-04-25T00:29:48.840Z,11.96
2019-04-25T00:32:19.607Z,11.90
2019-04-25T00:34:51.802Z,11.94
2019-04-25T00:37:22.882Z,11.93
2019-04-25T00:39:53.668Z,11.89
2019-04-25T00:42:24.691Z,11.68
2019-04-25T00:44:55.466Z,11.64
2019-04-25T00:47:26.288Z,11.63
2019-04-25T00:49:57.074Z,11.81
2019-04-25T00:52:27.837Z,11.90
2019-04-25T00:54:58.608Z,11.54
2019-04-25T00:57:29.678Z,11.60
2019-04-25T01:00:19.346Z,11.67
2019-04-25T01:02:53.403Z,12.22
2019-04-25T01:05:24.703Z,11.70
2019-04-25T01:07:55.487Z,11.65
2019-04-25T01:10:26.571Z,11.66
2019-04-25T01:12:57.460Z,11.77
2019-04-25T01:15:28.265Z,11.45
2019-04-25T01:17:59.027Z,11.71
2019-04-25T01:20:29.942Z,11.51
2019-04-25T01:23:00.974Z,11.35
2019-04-25T01:25:40.327Z,11.20
2019-04-25T01:28:05.087Z,11.20
2019-04-25T01:30:35.954Z,11.23
2019-04-25T01:33:07.640Z,11.24
2019-04-25T01:35:40.316Z,11.17
2019-04-25T01:38:19.053Z,11.26
2019-04-25T01:40:55.614Z,11.20
2019-04-25T01:43:35.446Z,11.03
2019-04-25T01:46:06.378Z,10.94
2019-04-25T01:48:37.240Z,10.93
2019-04-25T01:51:08.320Z,10.87
2019-04-25T01:53:39.079Z,10.93
2019-04-25T01:56:10.065Z,10.87
2019-04-25T01:58:40.825Z,10.83
2019-04-25T02:01:14.218Z,10.87
2019-04-25T02:03:45.205Z,10.76
2019-04-25T02:06:15.998Z,10.65
2019-04-25T02:08:46.777Z,10.66
2019-04-25T02:11:22.000Z,10.59
2019-04-25T02:13:54.653Z,11.09
2019-04-25T02:16:25.475Z,10.83
2019-04-25T02:18:56.570Z,11.20
2019-04-25T02:21:27.344Z,11.09
2019-04-25T02:23:58.203Z,10.58
2019-04-25T02:26:29.014Z,10.51
2019-04-25T02:29:00.514Z,10.34
2019-04-25T02:31:31.488Z,10.24
2019-04-25T02:34:04.668Z,10.26
2019-04-25T02:36:34.981Z,10.36
2019-04-25T02:39:11.463Z,10.33
2019-04-25T02:41:44.382Z,10.20
2019-04-25T02:44:14.945Z,10.15
2019-04-25T02:46:55.815Z,10.28
2019-04-25T02:49:39.613Z,10.21
2019-04-25T02:52:15.648Z,10.63
2019-04-25T02:54:44.915Z,10.10
2019-04-25T02:57:15.896Z,9.96
2019-04-25T02:59:46.661Z,10.21
2019-04-25T03:02:17.558Z,10.26
2019-04-25T03:04:48.409Z,10.40
2019-04-25T03:07:19.256Z,10.20
2019-04-25T03:09:49.990Z,10.42
2019-04-25T03:12:30.546Z,10.55
2019-04-25T03:14:54.987Z,10.34
2019-04-25T03:17:26.025Z,10.20
2019-04-25T03:20:08.097Z,10.66
2019-04-25T03:22:37.174Z,10.29
2019-04-25T03:25:11.611Z,10.40
2019-04-25T03:27:40.640Z,10.38
2019-04-25T03:30:14.052Z,10.24
2019-04-25T03:32:45.120Z,9.88
2019-04-25T03:35:16.068Z,9.82
2019-04-25T03:37:46.915Z,9.62
2019-04-25T03:40:17.701Z,10.35
2019-04-25T03:42:48.499Z,10.36
2019-04-25T03:45:19.274Z,9.70
2019-04-25T03:47:50.032Z,9.98
2019-04-25T03:50:20.912Z,10.23
2019-04-25T03:52:51.683Z,9.91
2019-04-25T03:55:23.989Z,9.94
2019-04-25T03:57:54.868Z,10.07
2019-04-25T04:00:25.642Z,9.74
2019-04-25T04:02:56.426Z,9.64
2019-04-25T04:05:28.034Z,9.67
2019-04-25T04:07:58.822Z,9.58
2019-04-25T04:10:30.202Z,9.44
2019-04-25T04:13:00.980Z,9.79
2019-04-25T04:15:33.432Z,10.10
2019-04-25T04:18:08.765Z,9.35
2019-04-25T04:20:41.464Z,9.57
2019-04-25T04:23:14.358Z,9.74
2019-04-25T04:25:45.443Z,9.59
2019-04-25T04:28:16.216Z,9.91
2019-04-25T04:30:46.992Z,9.67
2019-04-25T04:33:29.548Z,9.65
2019-04-25T04:35:50.454Z,9.90
2019-04-25T04:38:21.224Z,9.93
2019-04-25T04:40:51.999Z,10.06
2019-04-25T04:43:23.925Z,9.91
2019-04-25T04:45:55.469Z,9.91
2019-04-25T04:48:26.232Z,10.33
2019-04-25T04:50:57.004Z,10.27
2019-04-25T04:53:27.765Z,10.04
2019-04-25T04:55:58.538Z,10.26
2019-04-25T04:58:29.316Z,10.17
2019-04-25T05:01:00.104Z,10.61
2019-04-25T05:03:39.115Z,10.29
2019-04-25T05:06:29.547Z,10.12
2019-04-25T05:09:15.523Z,10.15
2019-04-25T05:11:47.152Z,10.07
2019-04-25T05:14:17.928Z,10.64
2019-04-25T05:16:49.601Z,10.07
2019-04-25T05:19:20.895Z,10.27
2019-04-25T05:21:51.679Z,10.45
2019-04-25T05:24:24.933Z,10.32
2019-04-25T05:26:55.141Z,10.45
2019-04-25T05:29:26.628Z,10.52
2019-04-25T05:31:57.596Z,10.89
2019-04-25T05:34:28.393Z,10.89
2019-04-25T05:36:59.166Z,10.70
2019-04-25T05:39:29.927Z,10.86
2019-04-25T05:42:19.006Z,10.61
2019-04-25T05:44:49.879Z,10.77
2019-04-25T05:47:22.575Z,11.05
2019-04-25T05:49:54.129Z,11.16
2019-04-25T05:52:25.437Z,11.08
2019-04-25T05:54:56.899Z,11.07
2019-04-25T05:57:28.334Z,11.09
2019-04-25T05:59:59.145Z,11.17
2019-04-25T06:02:29.941Z,11.07
2019-04-25T06:05:00.723Z,11.36
2019-04-25T06:07:33.223Z,11.73
2019-04-25T06:10:10.745Z,11.52
2019-04-25T06:12:43.741Z,12.01
2019-04-25T06:15:14.514Z,11.89
2019-04-25T06:17:47.317Z,12.07
2019-04-25T06:20:23.598Z,12.05
2019-04-25T06:23:00.064Z,12.25
2019-04-25T06:25:37.267Z,12.32
2019-04-25T06:28:11.046Z,12.65
2019-04-25T06:30:41.818Z,13.02
2019-04-25T06:33:13.347Z,12.71
2019-04-25T06:35:44.277Z,13.02
2019-04-25T06:38:15.006Z,12.96
2019-04-25T06:40:45.775Z,13.25
2019-04-25T06:43:16.579Z,13.20
2019-04-25T06:45:50.287Z,13.48
2019-04-25T06:48:33.253Z,14.24
2019-04-25T06:51:04.531Z,14.09
2019-04-25T06:53:35.309Z,13.48
2019-04-25T06:56:06.084Z,13.38
2019-04-25T06:58:36.864Z,13.31
2019-04-25T07:01:07.641Z,14.18
2019-04-25T07:03:38.425Z,14.32
2019-04-25T07:06:09.194Z,14.81
2019-04-25T07:08:39.976Z,14.88
2019-04-25T07:11:10.760Z,15.10
2019-04-25T07:13:41.542Z,15.46
2019-04-25T07:16:13.405Z,15.53
2019-04-25T07:18:46.570Z,15.63
2019-04-25T07:21:17.082Z,15.70
2019-04-25T07:23:47.872Z,15.58
2019-04-25T07:26:20.737Z,15.62
2019-04-25T07:28:53.885Z,16.02
2019-04-25T07:31:26.876Z,16.54
2019-04-25T07:34:03.257Z,16.54
2019-04-25T07:36:35.094Z,16.70
2019-04-25T07:39:10.582Z,15.71
2019-04-25T07:41:40.566Z,15.71
2019-04-25T07:44:11.348Z,16.01
2019-04-25T07:46:43.336Z,16.50
2019-04-25T07:49:14.343Z,17.18
2019-04-25T07:51:45.422Z,16.41
2019-04-25T07:54:16.492Z,16.50
2019-04-25T07:56:47.253Z,16.09
2019-04-25T07:59:18.158Z,16.51
2019-04-25T08:01:49.036Z,17.09
2019-04-25T08:04:19.826Z,17.04
2019-04-25T08:06:50.629Z,17.60
2019-04-25T08:09:21.508Z,17.33
2019-04-25T08:11:53.207Z,18.07
2019-04-25T08:14:28.464Z,18.31
2019-04-25T08:17:03.696Z,18.52
2019-04-25T08:19:35.579Z,17.98
2019-04-25T08:22:06.547Z,18.20
2019-04-25T08:24:39.151Z,19.23
2019-04-25T08:27:10.121Z,19.37
2019-04-25T08:29:41.231Z,19.01
2019-04-25T08:32:12.071Z,18.19
2019-04-25T08:34:44.634Z,17.82
2019-04-25T08:37:18.900Z,18.09
2019-04-25T08:39:48.229Z,17.90
2019-04-25T08:42:18.987Z,18.56
2019-04-25T08:44:49.777Z,18.84
2019-04-25T08:47:20.539Z,18.89
2019-04-25T08:50:03.540Z,18.70
2019-04-25T08:52:35.480Z,18.74
2019-04-25T08:55:09.082Z,19.15
2019-04-25T08:57:54.074Z,19.18
2019-04-25T09:00:35.568Z,19.22
2019-04-25T09:03:14.392Z,19.50
2019-04-25T09:05:47.319Z,19.45
2019-04-25T09:08:18.048Z,19.62
2019-04-25T09:10:48.841Z,19.31
2019-04-25T09:13:19.595Z,19.34
2019-04-25T09:15:50.381Z,19.38
2019-04-25T09:18:21.157Z,19.37
2019-04-25T09:20:53.830Z,19.44
2019-04-25T09:23:24.628Z,19.85
2019-04-25T09:25:55.400Z,19.91
2019-04-25T09:28:26.173Z,20.36
2019-04-25T09:30:56.956Z,20.97
2019-04-25T09:33:27.724Z,20.83
2019-04-25T09:35:58.500Z,20.60
2019-04-25T09:38:29.305Z,21.19
2019-04-25T09:41:00.077Z,21.63
2019-04-25T09:43:30.856Z,21.08
2019-04-25T09:46:03.554Z,21.32
2019-04-25T09:48:36.617Z,21.59
2019-04-25T09:51:19.523Z,21.51
2019-04-25T09:53:54.000Z,22.01
2019-04-25T09:56:42.924Z,21.61
2019-04-25T09:59:26.708Z,21.78
2019-04-25T10:01:49.388Z,21.60
2019-04-25T10:04:22.930Z,22.43
2019-04-25T10:06:53.461Z,22.40
2019-04-25T10:09:24.688Z,22.30
2019-04-25T10:11:55.459Z,22.05
2019-04-25T10:14:39.092Z,22.13
2019-04-25T10:17:09.976Z,22.36
2019-04-25T10:19:41.185Z,22.87
2019-04-25T10:22:13.576Z,22.70
2019-04-25T10:24:56.521Z,22.76
2019-04-25T10:27:17.304Z,23.17
2019-04-25T10:29:53.477Z,22.90
2019-04-25T10:32:20.775Z,22.99
2019-04-25T10:34:51.716Z,22.78
2019-04-25T10:37:22.549Z,23.45
2019-04-25T10:39:55.255Z,23.22
2019-04-25T10:42:26.391Z,23.31
2019-04-25T10:44:57.165Z,23.50
2019-04-25T10:47:28.251Z,23.14
2019-04-25T10:49:59.337Z,23.69
2019-04-25T10:52:30.206Z,23.62
2019-04-25T10:55:00.999Z,23.93
2019-04-25T10:57:31.772Z,23.82
2019-04-25T11:00:19.726Z,23.81
2019-04-25T11:02:50.538Z,24.00
2019-04-25T11:05:21.302Z,24.27
2019-04-25T11:07:55.585Z,24.49
2019-04-25T11:10:25.075Z,24.00
2019-04-25T11:12:56.058Z,24.18
2019-04-25T11:15:26.829Z,24.12
2019-04-25T11:17:57.874Z,24.77
2019-04-25T11:20:29.972Z,24.78
2019-04-25T11:23:00.763Z,24.88
2019-04-25T11:25:31.544Z,24.65
2019-04-25T11:28:03.947Z,24.46
2019-04-25T11:30:34.919Z,25.54
2019-04-25T11:33:06.510Z,25.09
2019-04-25T11:35:37.374Z,25.07
2019-04-25T11:38:10.052Z,25.03
2019-04-25T11:40:54.934Z,25.71
2019-04-25T11:43:25.613Z,24.78
2019-04-25T11:45:57.110Z,24.87
2019-04-25T11:48:27.981Z,25.34
2019-04-25T11:50:58.751Z,25.53
2019-04-25T11:53:29.531Z,24.89
2019-04-25T11:56:00.502Z,24.78
2019-04-25T11:58:31.299Z,24.83
2019-04-25T12:01:03.426Z,25.24
2019-04-25T12:03:35.857Z,25.54
2019-04-25T12:06:07.212Z,26.04
2019-04-25T12:08:38.216Z,25.99
2019-04-25T12:11:09.320Z,24.96
2019-04-25T12:13:40.117Z,24.71
2019-04-25T12:16:14.429Z,24.80
2019-04-25T12:18:49.336Z,25.12
2019-04-25T12:21:23.970Z,25.47
2019-04-25T12:23:55.281Z,25.83
2019-04-25T12:26:26.389Z,25.84
2019-04-25T12:28:57.266Z,26.52
2019-04-25T12:31:28.046Z,27.32
2019-04-25T12:33:58.836Z,27.96
2019-04-25T12:36:30.136Z,27.73
2019-04-25T12:39:01.117Z,26.87
2019-04-25T12:41:32.049Z,26.46
2019-04-25T12:44:04.779Z,26.68
2019-04-25T12:46:37.474Z,27.10
2019-04-25T12:49:08.262Z,27.08
2019-04-25T12:51:39.142Z,27.19
2019-04-25T12:54:09.933Z,27.33
2019-04-25T12:56:40.699Z,27.65
2019-04-25T12:59:11.659Z,27.61
2019-04-25T13:01:43.439Z,26.67
2019-04-25T13:04:14.317Z,27.02
2019-04-25T13:06:45.073Z,26.81
2019-04-25T13:09:15.851Z,27.02
2019-04-25T13:11:46.630Z,27.82
2019-04-25T13:14:17.606Z,27.94
2019-04-25T13:16:48.487Z,28.13
2019-04-25T13:19:23.920Z,27.93
2019-04-25T13:21:51.945Z,28.41
2019-04-25T13:24:22.845Z,27.73
2019-04-25T13:27:01.592Z,28.25
2019-04-25T13:29:46.291Z,28.24
2019-04-25T13:32:35.866Z,28.10
2019-04-25T13:35:17.488Z,28.32
2019-04-25T13:37:48.258Z,28.37
2019-04-25T13:40:19.028Z,28.53
2019-04-25T13:42:49.816Z,27.85
2019-04-25T13:45:20.623Z,27.57
2019-04-25T13:47:51.385Z,27.40
2019-04-25T13:50:23.960Z,27.40
2019-04-25T13:52:55.127Z,27.66
2019-04-25T13:55:25.901Z,26.90
2019-04-25T13:57:56.672Z,27.64
2019-04-25T14:00:27.874Z,27.95
2019-04-25T14:02:58.963Z,27.75
2019-04-25T14:05:30.437Z,28.56
2019-04-25T14:08:01.237Z,29.52
2019-04-25T14:10:32.805Z,29.01
2019-04-25T14:13:05.610Z,29.29
2019-04-25T14:15:39.081Z,28.31
2019-04-25T14:18:11.763Z,29.30
2019-04-25T14:20:44.440Z,29.30
2019-04-25T14:23:15.424Z,30.07
2019-04-25T14:25:46.213Z,29.36
2019-04-25T14:28:16.986Z,29.23
2019-04-25T14:30:48.207Z,28.88
2019-04-25T14:33:18.975Z,28.42
2019-04-25T14:35:49.751Z,28.51
2019-04-25T14:38:21.215Z,28.76
2019-04-25T14:40:52.322Z,28.59
2019-04-25T14:43:23.920Z,29.20
2019-04-25T14:45:56.365Z,29.07
2019-04-25T14:48:27.553Z,31.35
2019-04-25T14:50:58.436Z,32.11
2019-04-25T14:53:29.556Z,32.95
2019-04-25T14:56:15.328Z,32.25
2019-04-25T14:58:46.360Z,30.88
2019-04-25T15:01:19.055Z,29.94
2019-04-25T15:03:49.828Z,28.38
2019-04-25T15:06:20.606Z,29.74
2019-04-25T15:08:54.032Z,30.60
2019-04-25T15:11:27.031Z,31.49
2019-04-25T15:13:58.016Z,31.20
2019-04-25T15:16:29.079Z,29.95
2019-04-25T15:19:00.015Z,29.47
2019-04-25T15:21:31.798Z,28.90
2019-04-25T15:24:02.884Z,27.91
2019-04-25T15:26:33.659Z,27.59
2019-04-25T15:29:04.529Z,27.19
2019-04-25T15:31:35.299Z,26.70
2019-04-25T15:34:06.069Z,27.10
2019-04-25T15:36:44.805Z,26.82
2019-04-25T15:39:23.897Z,26.88
2019-04-25T15:42:06.515Z,26.99
2019-04-25T15:44:54.175Z,26.91
2019-04-25T15:47:27.586Z,27.25
2019-04-25T15:49:58.620Z,27.53
2019-04-25T15:52:29.397Z,26.83
2019-04-25T15:55:06.888Z,26.73
2019-04-25T15:57:32.856Z,26.99
2019-04-25T16:00:07.423Z,26.85
2019-04-25T16:02:39.007Z,26.82
2019-04-25T16:05:09.891Z,26.85
2019-04-25T16:07:40.682Z,26.68
2019-04-25T16:10:11.740Z,26.68
2019-04-25T16:12:42.513Z,26.20
2019-04-25T16:15:13.294Z,26.05
2019-04-25T16:17:44.071Z,26.18
2019-04-25T16:20:14.955Z,26.33
2019-04-25T16:22:45.733Z,26.40
2019-04-25T16:25:16.899Z,26.10
2019-04-25T16:27:47.677Z,25.61
2019-04-25T16:30:20.654Z,25.73
2019-04-25T16:32:51.651Z,26.09
2019-04-25T16:35:22.415Z,25.73
2019-04-25T16:37:53.210Z,25.83
2019-04-25T16:40:24.159Z,25.90
2019-04-25T16:42:55.244Z,25.87
2019-04-25T16:45:26.209Z,26.23
2019-04-25T16:47:57.109Z,25.80
2019-04-25T16:50:30.168Z,25.75
2019-04-25T16:53:01.018Z,25.69
2019-04-25T16:55:32.068Z,25.63
2019-04-25T16:58:03.867Z,25.35
2019-04-25T17:00:39.598Z,25.39
2019-04-25T17:03:11.292Z,25.31
2019-04-25T17:05:43.033Z,24.99
2019-04-25T17:08:14.046Z,25.33
2019-04-25T17:10:44.814Z,25.01
2019-04-25T17:13:15.912Z,24.87
2019-04-25T17:15:51.442Z,24.73
2019-04-25T17:18:26.888Z,24.65
2019-04-25T17:21:05.178Z,24.49
2019-04-25T17:23:36.989Z,24.75
2019-04-25T17:26:08.353Z,24.63
2019-04-25T17:28:41.228Z,24.66
2019-04-25T17:31:29.310Z,24.70
2019-04-25T17:34:05.145Z,24.54
2019-04-25T17:36:44.052Z,24.56
2019-04-25T17:39:22.982Z,24.79
2019-04-25T17:41:53.756Z,24.25
2019-04-25T17:44:24.527Z,24.02
2019-04-25T17:47:05.797Z,24.05
2019-04-25T17:49:28.098Z,23.87
2019-04-25T17:51:58.859Z,23.84
2019-04-25T17:54:29.656Z,23.47
2019-04-25T17:57:00.414Z,23.52
2019-04-25T17:59:31.183Z,23.54
2019-04-25T18:02:02.101Z,23.42
2019-04-25T18:04:34.015Z,23.55
2019-04-25T18:07:05.461Z,23.46
2019-04-25T18:09:36.825Z,23.02
2019-04-25T18:12:07.601Z,22.67
2019-04-25T18:14:38.508Z,22.72
2019-04-25T18:17:09.354Z,22.15
2019-04-25T18:19:42.594Z,21.86
2019-04-25T18:22:15.302Z,21.29
2019-04-25T18:24:57.111Z,21.31
2019-04-25T18:27:32.342Z,21.77
2019-04-25T18:30:06.212Z,21.55
2019-04-25T18:32:39.198Z,20.81
2019-04-25T18:35:11.969Z,20.58
2019-04-25T18:37:59.515Z,20.83
2019-04-25T18:40:40.831Z,20.55
2019-04-25T18:43:19.285Z,20.39
2019-04-25T18:45:51.968Z,20.34
2019-04-25T18:48:22.730Z,20.08
2019-04-25T18:50:53.503Z,20.21
2019-04-25T18:53:41.308Z,20.34
2019-04-25T18:56:13.988Z,20.15
2019-04-25T18:58:58.289Z,20.37
2019-04-25T19:01:43.721Z,20.46
2019-04-25T19:04:28.776Z,20.22
2019-04-25T19:06:59.662Z,19.43
2019-04-25T19:09:30.423Z,19.12
2019-04-25T19:12:01.227Z,19.32
2019-04-25T19:14:31.980Z,19.40
2019-04-25T19:17:04.274Z,19.96
2019-04-25T19:19:35.039Z,20.21
2019-04-25T19:22:05.922Z,20.05
2019-04-25T19:24:36.696Z,19.84
2019-04-25T19:27:07.483Z,18.50
2019-04-25T19:29:38.248Z,18.50
2019-04-25T19:32:09.019Z,18.48
2019-04-25T19:34:40.170Z,18.32
2019-04-25T19:37:11.883Z,18.46
2019-04-25T19:39:45.209Z,18.02
2019-04-25T19:42:17.955Z,18.21
2019-04-25T19:44:49.226Z,18.34
2019-04-25T19:47:20.764Z,19.20
2019-04-25T19:49:51.906Z,18.63
2019-04-25T19:52:22.671Z,18.07
2019-04-25T19:54:53.444Z,18.21
2019-04-25T19:57:24.258Z,18.08
2019-04-25T19:59:55.122Z,18.21
2019-04-25T20:02:36.971Z,18.17
2019-04-25T20:05:09.759Z,18.21
2019-04-25T20:07:43.849Z,18.80
2019-04-25T20:10:17.096Z,18.47
2019-04-25T20:12:51.783Z,17.77
2019-04-25T20:15:22.442Z,18.12
2019-04-25T20:17:54.242Z,17.69
2019-04-25T20:20:25.198Z,17.88
2019-04-25T20:22:55.972Z,17.51
2019-04-25T20:25:26.741Z,17.59
2019-04-25T20:27:57.524Z,17.62
2019-04-25T20:30:28.290Z,17.72
2019-04-25T20:32:59.074Z,17.60
2019-04-25T20:35:29.853Z,17.90
2019-04-25T20:38:00.646Z,17.58
2019-04-25T20:40:31.401Z,17.65
2019-04-25T20:43:02.280Z,17.23
2019-04-25T20:45:33.047Z,17.25
2019-04-25T20:48:03.823Z,16.86
2019-04-25T20:50:34.588Z,16.78
2019-04-25T20:53:05.384Z,16.90
2019-04-25T20:55:36.155Z,17.10
2019-04-25T20:58:06.930Z,16.68
2019-04-25T21:00:40.144Z,17.00
2019-04-25T21:03:11.117Z,17.35
2019-04-25T21:05:42.573Z,17.15
2019-04-25T21:08:13.303Z,16.96
2019-04-25T21:10:44.069Z,16.96
2019-04-25T21:13:16.747Z,17.07
2019-04-25T21:15:52.515Z,16.91
2019-04-25T21:18:25.391Z,16.90
2019-04-25T21:20:57.063Z,17.10
2019-04-25T21:23:27.979Z,17.03
2019-04-25T21:25:59.097Z,17.03
2019-04-25T21:28:29.947Z,16.69
2019-04-25T21:31:02.396Z,16.89
2019-04-25T21:33:33.407Z,16.69
2019-04-25T21:36:04.503Z,16.73
2019-04-25T21:38:35.471Z,16.73
2019-04-25T21:41:08.152Z,16.36
2019-04-25T21:43:46.834Z,16.88
2019-04-25T21:46:17.826Z,16.82
2019-04-25T21:48:48.903Z,16.50
2019-04-25T21:51:32.474Z,16.50
2019-04-25T21:54:03.783Z,16.40
2019-04-25T21:56:34.848Z,16.11
2019-04-25T21:59:05.610Z,16.23
2019-04-25T22:01:38.300Z,16.57
2019-04-25T22:04:09.089Z,15.97
2019-04-25T22:06:40.174Z,15.97
2019-04-25T22:09:13.146Z,15.76
2019-04-25T22:11:44.335Z,16.13
2019-04-25T22:14:15.400Z,15.85
2019-04-25T22:16:46.487Z,15.72
2019-04-25T22:19:18.454Z,15.93
2019-04-25T22:21:49.658Z,15.29
2019-04-25T22:24:20.415Z,15.49
2019-04-25T22:26:53.400Z,16.50
2019-04-25T22:29:24.491Z,15.81
2019-04-25T22:31:57.310Z,15.51
2019-04-25T22:34:31.264Z,15.42
2019-04-25T22:37:02.177Z,15.32
2019-04-25T22:39:32.914Z,15.26
2019-04-25T22:42:04.101Z,15.40
2019-04-25T22:44:35.294Z,15.09
2019-04-25T22:47:06.681Z,14.91
2019-04-25T22:49:37.415Z,15.40
2019-04-25T22:52:09.141Z,15.06
2019-04-25T22:54:40.095Z,14.80
2019-04-25T22:57:10.877Z,14.87
2019-04-25T22:59:41.951Z,14.81
2019-04-25T23:02:17.188Z,14.74
2019-04-25T23:04:50.462Z,14.70
2019-04-25T23:07:21.509Z,15.14
2019-04-25T23:09:53.285Z,14.64
2019-04-25T23:12:24.358Z,15.27
2019-04-25T23:14:55.115Z,14.81
2019-04-25T23:17:25.998Z,14.78
2019-04-25T23:19:56.965Z,14.40
2019-04-25T23:22:27.774Z,15.28
2019-04-25T23:25:00.738Z,14.73
2019-04-25T23:27:33.408Z,14.52
2019-04-25T23:30:08.931Z,14.29
2019-04-25T23:32:40.210Z,14.04
2019-04-25T23:35:24.295Z,14.31
2019-04-25T23:37:43.668Z,14.05
2019-04-25T23:40:14.529Z,13.89
2019-04-25T23:42:45.300Z,13.74
2019-04-25T23:45:16.604Z,13.84
2019-04-25T23:47:47.465Z,13.69
2019-04-25T23:50:18.527Z,13.97
2019-04-25T23:52:49.316Z,13.62
2019-04-25T23:55:20.300Z,13.51
2019-04-25T23:57:51.077Z,13.52
